Time;durP1;ratioP1;P1;durP2;ratioP2;P2;SDS_P1;SDS_P2;PMS_P1;PMS_P2;Temp;Humidity;BMP_temperature;BMP_pressure;BME280_temperature;BME280_humidity;BME280_pressure;Samples;Min_cycle;Max_cycle;Signal;HPM_P1;HPM_P2
2021/08/30 00:00:39;;;;;;;13.52;6.55;;;409.60;2355.20;;;;;;5092760;28;20020;-78
2021/08/30 00:03:04;;;;;;;12.07;5.90;;;409.60;2355.20;;;;;;5092894;28;20012;-75
2021/08/30 00:05:30;;;;;;;12.70;6.07;;;384.90;2329.60;;;;;;5092417;28;20043;-76
2021/08/30 00:07:56;;;;;;;8.13;6.38;;;384.90;2329.60;;;;;;5093417;28;20124;-76
2021/08/30 00:10:22;;;;;;;10.85;5.18;;;384.90;2329.60;;;;;;5090838;28;20020;-75
2021/08/30 00:12:48;;;;;;;8.70;5.70;;;384.90;2329.60;;;;;;5091460;28;20025;-77
2021/08/30 00:15:15;;;;;;;16.63;5.40;;;384.80;2329.60;;;;;;5092781;28;20480;-77
2021/08/30 00:17:41;;;;;;;10.13;5.63;;;384.90;2329.60;;;;;;5093177;28;20077;-77
2021/08/30 00:20:13;;;;;;;12.73;6.45;;;384.90;2329.60;;;;;;5092656;28;20059;-76
2021/08/30 00:22:39;;;;;;;6.65;4.80;;;384.90;2329.60;;;;;;5093309;28;20128;-77
2021/08/30 00:25:05;;;;;;;7.40;5.05;;;384.80;2329.60;;;;;;5093036;28;20022;-76
2021/08/30 00:27:31;;;;;;;11.77;5.95;;;384.80;2329.60;;;;;;5091927;28;20503;-76
2021/08/30 00:29:57;;;;;;;6.55;5.07;;;384.80;2329.60;;;;;;5074969;28;20036;-78
2021/08/30 00:32:23;;;;;;;9.32;5.88;;;384.80;2329.60;;;;;;5093556;28;20024;-75
2021/08/30 00:34:49;;;;;;;10.15;4.78;;;384.80;2329.60;;;;;;5082457;28;20059;-77
2021/08/30 00:37:15;;;;;;;9.48;4.90;;;384.90;2329.60;;;;;;5072057;28;20020;-75
2021/08/30 00:39:41;;;;;;;7.85;4.63;;;384.90;2329.60;;;;;;5068655;28;20493;-75
2021/08/30 00:42:07;;;;;;;8.60;4.97;;;384.80;2329.60;;;;;;5072263;28;20032;-75
2021/08/30 00:44:33;;;;;;;9.40;5.25;;;384.80;2329.60;;;;;;5072433;28;20024;-76
2021/08/30 00:46:59;;;;;;;11.18;6.18;;;384.90;2329.60;;;;;;5084776;28;20030;-75
2021/08/30 00:49:25;;;;;;;8.65;4.70;;;384.90;2329.60;;;;;;5073234;28;20117;-75
2021/08/30 00:51:52;;;;;;;9.60;5.32;;;384.90;2329.60;;;;;;5072105;28;20465;-76
2021/08/30 00:54:19;;;;;;;13.90;5.90;;;384.90;2329.60;;;;;;5030598;28;1194659;-75
2021/08/30 00:56:46;;;;;;;10.85;5.60;;;384.80;2329.60;;;;;;5072956;28;20486;-75
2021/08/30 00:59:12;;;;;;;8.35;5.53;;;384.80;2329.60;;;;;;5073162;28;20017;-75
2021/08/30 01:01:38;;;;;;;14.88;6.85;;;384.60;2329.60;;;;;;5072988;28;20055;-74
2021/08/30 01:04:08;;;;;;;12.55;6.97;;;384.80;2329.60;;;;;;5073266;28;20024;-76
2021/08/30 01:06:48;;;;;;;9.85;5.35;;;384.80;2329.60;;;;;;5069987;28;20079;-76
2021/08/30 01:09:44;;;;;;;14.25;7.18;;;384.90;2329.60;;;;;;5073027;28;20040;-75
2021/08/30 01:12:23;;;;;;;9.87;6.43;;;384.70;2329.60;;;;;;5031062;28;20037;-76
2021/08/30 01:15:14;;;;;;;9.20;5.80;;;384.70;2329.60;;;;;;5028346;28;20029;-75
2021/08/30 01:17:42;;;;;;;10.02;6.63;;;384.70;2329.60;;;;;;5027577;28;20064;-75
2021/08/30 01:20:49;;;;;;;13.15;7.50;;;384.60;2329.60;;;;;;5031083;28;20105;-75
2021/08/30 01:23:16;;;;;;;10.60;6.57;;;384.60;2329.60;;;;;;4979389;28;20038;-75
2021/08/30 01:25:42;;;;;;;11.60;6.90;;;384.60;2329.60;;;;;;4980070;28;20023;-75
2021/08/30 01:28:08;;;;;;;9.07;6.70;;;384.60;2329.60;;;;;;4983781;28;20041;-75
2021/08/30 01:30:37;;;;;;;11.52;7.00;;;384.60;2329.60;;;;;;4988262;28;20048;-75
2021/08/30 01:33:04;;;;;;;13.45;7.90;;;384.50;2329.60;;;;;;4986855;28;20031;-75
2021/08/30 01:35:31;;;;;;;9.70;6.50;;;384.50;2329.60;;;;;;4985560;28;20460;-75
2021/08/30 01:38:01;;;;;;;14.77;7.75;;;384.50;2329.60;;;;;;4980903;28;20030;-75
2021/08/30 01:40:28;;;;;;;11.30;6.60;;;384.60;2329.60;;;;;;4980737;28;20559;-75
2021/08/30 01:42:57;;;;;;;7.75;6.53;;;384.50;2329.60;;;;;;4983805;28;20034;-74
2021/08/30 01:45:25;;;;;;;11.25;6.43;;;384.50;2329.60;;;;;;4980257;28;20443;-74
2021/08/30 01:47:55;;;;;;;9.23;7.07;;;384.50;2329.60;;;;;;4982542;28;20114;-74
2021/08/30 01:50:22;;;;;;;10.15;6.13;;;384.60;2329.60;;;;;;5009437;28;20474;-75
2021/08/30 01:52:50;;;;;;;10.02;6.30;;;384.50;2329.60;;;;;;5007974;28;20040;-75
2021/08/30 02:00:47;;;;;;;8.70;6.43;;;384.60;2329.60;;;;;;5052993;28;20135;-74
2021/08/30 02:03:29;;;;;;;8.65;6.10;;;384.60;2329.60;;;;;;5071455;28;20013;-75
2021/08/30 02:05:59;;;;;;;9.45;6.50;;;384.50;2329.60;;;;;;5071113;28;20040;-76
2021/08/30 02:08:27;;;;;;;13.50;6.75;;;384.50;2329.60;;;;;;5069273;28;20024;-76
2021/08/30 02:10:59;;;;;;;15.73;6.97;;;384.40;2329.60;;;;;;5062211;28;20142;-76
2021/08/30 02:13:28;;;;;;;8.32;6.20;;;384.50;2329.60;;;;;;5091609;28;20028;-76
2021/08/30 02:15:55;;;;;;;12.93;6.85;;;384.50;2329.60;;;;;;5091710;28;20020;-78
2021/08/30 02:18:27;;;;;;;13.13;6.18;;;384.30;2329.60;;;;;;5091594;28;20507;-76
2021/08/30 02:21:16;;;;;;;13.15;6.93;;;384.30;2329.60;;;;;;5073099;28;20036;-77
2021/08/30 02:23:56;;;;;;;12.27;6.25;;;384.30;2329.60;;;;;;5091560;28;20016;-78
2021/08/30 02:26:31;;;;;;;10.75;6.20;;;384.30;2329.60;;;;;;5072724;28;20377;-75
2021/08/30 02:29:01;;;;;;;10.55;5.93;;;384.30;2329.60;;;;;;5091352;28;20025;-75
2021/08/30 02:31:28;;;;;;;11.73;6.07;;;384.20;2329.60;;;;;;5089952;28;20024;-76
2021/08/30 02:33:57;;;;;;;9.90;6.47;;;384.30;2329.60;;;;;;5072804;28;20036;-76
2021/08/30 02:36:25;;;;;;;11.90;6.10;;;384.10;2329.60;;;;;;5091353;28;20059;-78
2021/08/30 02:38:52;;;;;;;9.32;6.10;;;384.30;2329.60;;;;;;5091376;28;20098;-77
2021/08/30 02:41:18;;;;;;;13.13;6.00;;;384.30;2329.60;;;;;;5073070;28;20473;-77
2021/08/30 02:43:45;;;;;;;12.30;6.68;;;384.30;2329.60;;;;;;5091272;28;20485;-78
2021/08/30 02:46:12;;;;;;;13.63;5.65;;;384.30;2329.60;;;;;;5091431;28;20020;-78
2021/08/30 02:48:39;;;;;;;9.93;5.68;;;384.30;2329.60;;;;;;5072041;28;20016;-78
2021/08/30 02:51:06;;;;;;;8.90;5.82;;;384.30;2329.60;;;;;;5091190;28;20488;-76
2021/08/30 02:53:33;;;;;;;9.73;5.50;;;384.30;2329.60;;;;;;5072810;28;20034;-78
2021/08/30 02:56:00;;;;;;;10.57;5.03;;;384.30;2329.60;;;;;;5089968;28;20044;-78
2021/08/30 02:58:27;;;;;;;9.25;5.72;;;384.10;2329.60;;;;;;5091157;28;20020;-77
2021/08/30 03:00:53;;;;;;;12.02;6.22;;;384.30;2329.60;;;;;;5091140;28;20094;-77
2021/08/30 03:03:20;;;;;;;11.68;6.07;;;384.30;2329.60;;;;;;5090988;28;20024;-76
2021/08/30 03:05:48;;;;;;;8.05;6.32;;;384.30;2329.60;;;;;;5090746;28;20062;-77
2021/08/30 03:08:15;;;;;;;8.00;5.72;;;384.20;2329.60;;;;;;5089597;28;20114;-77
2021/08/30 03:10:43;;;;;;;10.68;5.88;;;384.20;2329.60;;;;;;5086970;28;20032;-78
2021/08/30 03:13:10;;;;;;;10.07;6.63;;;384.30;2329.60;;;;;;5080015;28;20136;-78
2021/08/30 03:15:36;;;;;;;9.18;6.07;;;384.30;2329.60;;;;;;5087923;28;20111;-75
2021/08/30 03:18:11;;;;;;;16.95;7.05;;;384.30;2329.60;;;;;;5086414;28;20233;-76
2021/08/30 03:20:37;;;;;;;10.18;6.10;;;384.30;2329.60;;;;;;5087450;28;20032;-75
2021/08/30 03:23:03;;;;;;;14.20;6.80;;;384.30;2329.60;;;;;;5090463;28;20050;-74
2021/08/30 03:25:43;;;;;;;8.13;6.45;;;384.00;2329.60;;;;;;5085726;28;20032;-75
2021/08/30 03:28:11;;;;;;;16.27;5.93;;;384.10;2329.60;;;;;;5072661;28;20040;-76
2021/08/30 03:30:38;;;;;;;10.10;6.35;;;384.00;2329.60;;;;;;5090397;28;20027;-75
2021/08/30 03:33:05;;;;;;;15.55;7.85;;;384.00;2329.60;;;;;;5084239;28;20058;-75
2021/08/30 03:35:32;;;;;;;11.48;6.65;;;384.00;2329.60;;;;;;5085901;28;20034;-76
2021/08/30 03:37:58;;;;;;;7.38;6.20;;;384.00;2329.60;;;;;;5072796;28;20044;-75
2021/08/30 03:40:25;;;;;;;10.75;5.80;;;384.00;2329.60;;;;;;5094000;28;20081;-75
2021/08/30 03:42:52;;;;;;;9.02;5.30;;;384.10;2329.60;;;;;;5094027;28;20038;-76
2021/08/30 03:45:18;;;;;;;8.57;6.15;;;384.10;2329.60;;;;;;5094210;28;20016;-75
2021/08/30 03:47:44;;;;;;;9.85;5.47;;;384.10;2329.60;;;;;;5092540;28;20028;-76
2021/08/30 03:50:13;;;;;;;8.32;6.00;;;384.10;2329.60;;;;;;5080921;28;20485;-77
2021/08/30 03:52:41;;;;;;;9.73;5.97;;;384.00;2329.60;;;;;;5089873;28;20469;-75
2021/08/30 03:55:08;;;;;;;10.32;5.68;;;384.00;2329.60;;;;;;5091133;28;20063;-76
2021/08/30 03:57:35;;;;;;;9.07;5.13;;;384.00;2329.60;;;;;;5077664;28;20111;-77
2021/08/30 04:00:04;;;;;;;9.07;5.68;;;384.00;2329.60;;;;;;5092641;28;20032;-75
2021/08/30 04:02:32;;;;;;;9.27;5.65;;;384.00;2329.60;;;;;;5089001;28;20016;-75
2021/08/30 04:04:59;;;;;;;12.50;6.35;;;384.00;2329.60;;;;;;5076512;28;20037;-77
2021/08/30 04:07:25;;;;;;;9.32;6.13;;;359.20;2329.60;;;;;;5087980;28;20047;-78
2021/08/30 04:09:51;;;;;;;12.65;6.72;;;359.10;2329.60;;;;;;5093053;28;20118;-78
2021/08/30 04:12:21;;;;;;;9.00;6.47;;;359.10;2329.60;;;;;;5094114;28;20020;-76
2021/08/30 04:14:49;;;;;;;8.90;6.15;;;359.00;2329.60;;;;;;5075538;28;20039;-75
2021/08/30 04:17:15;;;;;;;8.52;6.65;;;359.00;2329.60;;;;;;5074892;28;20039;-76
2021/08/30 04:19:42;;;;;;;9.80;5.97;;;359.00;2329.60;;;;;;5075182;28;20046;-76
2021/08/30 04:22:08;;;;;;;7.97;6.32;;;359.00;2329.60;;;;;;5093759;28;20033;-75
2021/08/30 04:24:34;;;;;;;8.60;6.88;;;359.10;2329.60;;;;;;5093527;28;20024;-75
2021/08/30 04:27:00;;;;;;;8.93;6.65;;;359.10;2329.60;;;;;;5092215;28;20031;-76
2021/08/30 04:29:27;;;;;;;9.07;6.25;;;359.20;2329.60;;;;;;5075838;28;20028;-77
2021/08/30 04:31:53;;;;;;;7.70;6.30;;;359.20;2329.60;;;;;;5094277;28;20354;-77
2021/08/30 04:34:23;;;;;;;9.65;6.93;;;359.20;2329.60;;;;;;5094361;28;20067;-77
2021/08/30 04:36:50;;;;;;;8.90;6.47;;;359.20;2329.60;;;;;;5094605;28;20016;-77
2021/08/30 04:39:15;;;;;;;11.32;6.72;;;359.20;2329.60;;;;;;5094593;28;20069;-78
2021/08/30 04:41:43;;;;;;;12.93;7.93;;;359.20;2329.60;;;;;;5094653;28;20020;-75
2021/08/30 04:44:09;;;;;;;11.85;7.63;;;359.30;2329.60;;;;;;5094620;28;20412;-78
2021/08/30 04:46:35;;;;;;;11.63;7.15;;;359.30;2329.60;;;;;;5088483;28;20024;-77
2021/08/30 04:49:01;;;;;;;10.75;7.38;;;359.30;2329.60;;;;;;5094732;28;20081;-75
2021/08/30 04:51:27;;;;;;;9.68;7.10;;;359.20;2329.60;;;;;;5094593;28;20024;-76
2021/08/30 04:53:53;;;;;;;9.48;6.95;;;359.20;2329.60;;;;;;5094323;28;20024;-78
2021/08/30 04:56:18;;;;;;;13.55;7.00;;;359.30;2329.60;;;;;;5094433;28;20090;-75
2021/08/30 04:58:44;;;;;;;11.13;7.00;;;359.20;2329.60;;;;;;5099825;28;20011;-78
2021/08/30 05:01:10;;;;;;;10.73;7.30;;;359.20;2329.60;;;;;;5079671;28;20020;-78
2021/08/30 05:03:36;;;;;;;13.73;8.48;;;359.20;2329.60;;;;;;5076171;28;20386;-78
2021/08/30 05:06:01;;;;;;;10.57;7.72;;;359.20;2329.60;;;;;;5075699;28;20059;-75
2021/08/30 05:08:27;;;;;;;13.95;8.18;;;359.30;2329.60;;;;;;5094150;28;20027;-76
2021/08/30 05:10:53;;;;;;;12.60;8.15;;;359.30;2329.60;;;;;;5094225;28;20024;-76
2021/08/30 05:13:18;;;;;;;12.73;8.40;;;359.30;2329.60;;;;;;5094083;28;20028;-76
2021/08/30 05:15:44;;;;;;;10.18;7.80;;;359.20;2329.60;;;;;;5094172;28;20024;-76
2021/08/30 05:18:10;;;;;;;12.07;8.57;;;359.20;2329.60;;;;;;5093869;28;20377;-76
2021/08/30 05:20:36;;;;;;;13.57;8.27;;;384.00;2329.60;;;;;;5095068;28;20044;-75
2021/08/30 05:23:01;;;;;;;11.55;8.48;;;384.00;2329.60;;;;;;5107527;28;20020;-76
2021/08/30 05:25:27;;;;;;;12.45;7.30;;;384.00;2329.60;;;;;;5093655;28;20480;-75
2021/08/30 05:27:58;;;;;;;12.40;8.85;;;384.00;2329.60;;;;;;5093676;28;20026;-75
2021/08/30 05:30:23;;;;;;;12.00;8.25;;;384.10;2329.60;;;;;;5104511;28;20094;-75
2021/08/30 05:32:49;;;;;;;10.48;8.10;;;384.10;2329.60;;;;;;5096342;28;20017;-75
2021/08/30 05:35:15;;;;;;;8.77;7.68;;;384.10;2329.60;;;;;;5075234;28;20085;-75
2021/08/30 05:37:41;;;;;;;9.35;7.70;;;384.20;2329.60;;;;;;5093598;28;20683;-75
2021/08/30 05:40:07;;;;;;;11.02;7.63;;;384.10;2329.60;;;;;;5093391;28;20048;-74
2021/08/30 05:42:33;;;;;;;10.00;6.93;;;384.10;2329.60;;;;;;5097677;28;20480;-74
2021/08/30 05:44:59;;;;;;;9.88;6.72;;;384.30;2329.60;;;;;;5098836;28;20115;-75
2021/08/30 05:47:24;;;;;;;11.57;7.50;;;384.30;2329.60;;;;;;5093339;28;20016;-76
2021/08/30 05:49:50;;;;;;;9.48;6.97;;;384.30;2329.60;;;;;;5074392;28;20028;-73
2021/08/30 05:52:16;;;;;;;12.43;7.40;;;384.40;2329.60;;;;;;5093370;28;20016;-74
2021/08/30 05:54:42;;;;;;;8.43;6.38;;;384.40;2329.60;;;;;;5092749;28;20044;-74
2021/08/30 05:57:07;;;;;;;8.30;5.78;;;384.50;2329.60;;;;;;5093173;28;20115;-75
2021/08/30 05:59:36;;;;;;;8.82;5.85;;;384.50;2329.60;;;;;;5092849;28;20145;-75
2021/08/30 06:02:02;;;;;;;8.85;4.85;;;384.60;2329.60;;;;;;5093469;28;20521;-75
2021/08/30 06:04:27;;;;;;;9.45;4.95;;;384.60;2329.60;;;;;;5092917;28;20020;-75
2021/08/30 06:06:53;;;;;;;7.20;5.30;;;384.70;2329.60;;;;;;5074647;28;20042;-75
2021/08/30 06:09:19;;;;;;;7.05;4.85;;;384.80;2329.60;;;;;;5092733;28;20495;-76
2021/08/30 06:11:47;;;;;;;9.27;5.05;;;384.90;2329.60;;;;;;5092892;28;20012;-75
2021/08/30 06:14:12;;;;;;;7.55;4.40;;;384.90;2329.60;;;;;;5092863;28;20035;-75
2021/08/30 06:16:38;;;;;;;7.65;4.40;;;384.90;2329.60;;;;;;5092919;28;20432;-75
2021/08/30 06:19:04;;;;;;;6.28;4.32;;;409.60;2355.20;;;;;;5092689;28;20108;-76
2021/08/30 06:21:30;;;;;;;6.97;4.85;;;409.70;2355.20;;;;;;5093210;28;20020;-79
2021/08/30 06:23:55;;;;;;;5.57;4.22;;;409.70;2355.20;;;;;;5093109;28;20039;-75
2021/08/30 06:26:21;;;;;;;6.88;4.97;;;409.90;2355.20;;;;;;5094745;28;20031;-75
2021/08/30 06:28:47;;;;;;;5.70;4.35;;;409.90;2355.20;;;;;;5080875;28;20446;-75
2021/08/30 06:31:12;;;;;;;9.38;4.30;;;410.00;2355.20;;;;;;5093080;28;20060;-75
2021/08/30 06:33:38;;;;;;;5.60;4.15;;;410.20;2355.20;;;;;;5074226;28;20028;-75
2021/08/30 06:36:04;;;;;;;5.60;3.70;;;410.20;2355.20;;;;;;5085233;28;20036;-75
2021/08/30 06:38:30;;;;;;;6.57;3.92;;;410.30;2355.20;;;;;;5074908;28;20017;-76
2021/08/30 06:40:56;;;;;;;5.63;3.67;;;410.30;2355.20;;;;;;5093028;28;20051;-75
2021/08/30 06:43:21;;;;;;;5.45;3.80;;;410.30;2355.20;;;;;;5093943;28;20389;-75
2021/08/30 06:45:47;;;;;;;10.88;3.90;;;410.30;2355.20;;;;;;5093006;28;20378;-75
2021/08/30 06:48:13;;;;;;;8.15;3.78;;;410.40;2355.20;;;;;;5074913;28;20028;-75
2021/08/30 06:50:39;;;;;;;5.35;3.22;;;410.50;2355.20;;;;;;5092805;28;20436;-76
2021/08/30 06:53:05;;;;;;;6.07;4.15;;;435.20;2355.20;;;;;;5092762;28;20031;-76
2021/08/30 06:55:31;;;;;;;5.97;4.00;;;435.20;2355.20;;;;;;5092660;28;20432;-77
2021/08/30 06:57:56;;;;;;;6.70;4.22;;;410.50;2355.20;;;;;;5092859;28;20034;-75
2021/08/30 07:00:22;;;;;;;7.10;3.95;;;435.20;2355.20;;;;;;5084418;28;20111;-75
2021/08/30 07:02:48;;;;;;;6.80;3.90;;;435.40;2355.20;;;;;;5110840;28;20019;-75
2021/08/30 07:05:14;;;;;;;6.28;3.90;;;435.50;2355.20;;;;;;5100699;28;20031;-75
2021/08/30 07:07:40;;;;;;;5.63;3.97;;;435.60;2355.20;;;;;;5112999;28;20432;-75
2021/08/30 07:10:06;;;;;;;6.72;4.45;;;435.60;2355.20;;;;;;5094733;28;20038;-75
2021/08/30 07:12:31;;;;;;;8.95;4.30;;;435.70;2355.20;;;;;;5096088;28;20028;-74
2021/08/30 07:14:57;;;;;;;10.13;3.95;;;435.80;2355.20;;;;;;5117130;28;20093;-75
2021/08/30 07:17:23;;;;;;;10.90;4.10;;;435.90;2355.20;;;;;;5117011;28;20088;-76
2021/08/30 07:19:49;;;;;;;6.53;4.32;;;436.10;2355.20;;;;;;5102413;28;20106;-75
2021/08/30 07:22:15;;;;;;;7.45;4.43;;;460.80;2380.80;;;;;;5116397;28;20038;-76
2021/08/30 07:24:40;;;;;;;8.40;4.35;;;460.80;2380.80;;;;;;5116039;28;20031;-76
2021/08/30 07:27:06;;;;;;;7.20;4.45;;;460.80;2380.80;;;;;;5116281;28;20032;-76
2021/08/30 07:29:32;;;;;;;6.25;4.20;;;460.80;2380.80;;;;;;5103565;28;20027;-77
2021/08/30 07:31:58;;;;;;;9.10;4.35;;;461.00;2380.80;;;;;;5114157;28;20020;-77
2021/08/30 07:34:24;;;;;;;5.07;3.90;;;461.00;2380.80;;;;;;5097280;28;20442;-77
2021/08/30 07:36:52;;;;;;;6.65;4.05;;;461.00;2380.80;;;;;;5101527;28;20024;-77
2021/08/30 07:39:18;;;;;;;8.88;3.92;;;461.20;2380.80;;;;;;5098359;28;20564;-76
2021/08/30 07:41:44;;;;;;;5.22;3.88;;;461.20;2380.80;;;;;;5132630;27;20031;-76
2021/08/30 07:44:09;;;;;;;5.10;3.78;;;461.30;2380.80;;;;;;5098339;28;20469;-76
2021/08/30 07:46:35;;;;;;;6.40;3.88;;;461.40;2380.80;;;;;;5098281;28;20023;-77
2021/08/30 07:49:01;;;;;;;8.70;4.57;;;461.30;2380.80;;;;;;5098298;28;20036;-78
2021/08/30 07:51:27;;;;;;;6.30;3.90;;;461.40;2380.80;;;;;;5087629;28;20098;-78
2021/08/30 07:53:53;;;;;;;7.60;3.58;;;461.40;2380.80;;;;;;5111650;28;20431;-76
2021/08/30 07:56:18;;;;;;;9.18;5.82;;;461.40;2380.80;;;;;;5074242;28;20448;-76
2021/08/30 07:58:44;;;;;;;7.53;4.20;;;461.50;2380.80;;;;;;5075674;28;20017;-76
2021/08/30 08:01:10;;;;;;;7.10;3.70;;;461.60;2380.80;;;;;;5091124;28;20028;-77
2021/08/30 08:03:36;;;;;;;9.57;3.63;;;461.60;2380.80;;;;;;5083020;28;20028;-77
2021/08/30 08:06:01;;;;;;;6.03;3.83;;;461.60;2380.80;;;;;;5093865;28;20028;-76
2021/08/30 08:08:27;;;;;;;6.15;3.42;;;461.60;2380.80;;;;;;5073843;28;20060;-76
2021/08/30 08:10:53;;;;;;;7.03;3.67;;;461.70;2380.80;;;;;;5074950;28;20462;-78
2021/08/30 08:13:19;;;;;;;5.65;3.63;;;486.40;2380.80;;;;;;5074892;28;20066;-75
2021/08/30 08:15:46;;;;;;;5.82;3.22;;;486.50;2380.80;;;;;;5074941;28;20454;-78
2021/08/30 08:18:11;;;;;;;6.80;3.38;;;486.40;2380.80;;;;;;5074945;28;20043;-76
2021/08/30 08:20:37;;;;;;;7.20;3.50;;;486.60;2380.80;;;;;;5074778;28;20044;-75
2021/08/30 08:23:03;;;;;;;5.25;3.53;;;486.60;2380.80;;;;;;5074390;28;20041;-77
2021/08/30 08:25:30;;;;;;;5.88;3.38;;;486.60;2380.80;;;;;;5074581;28;20016;-77
2021/08/30 08:28:00;;;;;;;4.57;3.35;;;486.60;2380.80;;;;;;5074259;28;20024;-76
2021/08/30 08:30:27;;;;;;;7.70;3.05;;;486.50;2380.80;;;;;;5073700;28;20206;-76
2021/08/30 08:32:52;;;;;;;5.32;3.45;;;486.50;2380.80;;;;;;5073722;28;20012;-76
2021/08/30 08:35:18;;;;;;;5.82;3.30;;;486.50;2380.80;;;;;;5073904;28;20040;-75
2021/08/30 08:37:44;;;;;;;4.88;3.45;;;486.50;2380.80;;;;;;5074480;28;20029;-77
2021/08/30 08:40:12;;;;;;;5.63;3.17;;;486.60;2380.80;;;;;;5072983;28;20040;-78
2021/08/30 08:42:40;;;;;;;4.15;2.90;;;486.70;2380.80;;;;;;5074271;28;20113;-75
2021/08/30 08:45:07;;;;;;;6.00;3.15;;;486.70;2380.80;;;;;;5074829;28;20469;-74
2021/08/30 08:47:36;;;;;;;7.75;3.20;;;486.80;2380.80;;;;;;5074790;28;20025;-76
2021/08/30 08:50:01;;;;;;;4.78;3.28;;;486.70;2380.80;;;;;;5074673;28;20028;-76
2021/08/30 08:52:27;;;;;;;4.18;3.08;;;486.80;2380.80;;;;;;5073432;28;20036;-78
2021/08/30 08:54:53;;;;;;;4.22;2.95;;;486.80;2380.80;;;;;;5080590;28;20052;-76
2021/08/30 08:57:19;;;;;;;4.22;2.95;;;486.90;2380.80;;;;;;5094643;28;20031;-77
2021/08/30 09:00:14;;;;;;;4.57;2.95;;;487.00;2380.80;;;;;;5075933;28;20115;-78
2021/08/30 09:02:41;;;;;;;6.35;3.17;;;487.00;2380.80;;;;;;5012786;28;20049;-79
2021/08/30 09:05:20;;;;;;;6.57;3.33;;;487.00;2380.80;;;;;;5010561;28;20095;-77
2021/08/30 09:07:47;;;;;;;6.88;3.55;;;487.20;2380.80;;;;;;5010835;28;20048;-77
2021/08/30 09:10:18;;;;;;;5.93;3.65;;;487.30;2380.80;;;;;;5012008;28;20030;-78
2021/08/30 09:12:47;;;;;;;5.25;3.45;;;512.00;2380.80;;;;;;5019748;28;20096;-76
2021/08/30 09:15:23;;;;;;;5.57;3.60;;;512.10;2380.80;;;;;;4995364;28;20487;-79
2021/08/30 09:17:56;;;;;;;4.78;3.38;;;512.20;2380.80;;;;;;5012037;28;20018;-81
2021/08/30 09:20:27;;;;;;;5.88;3.50;;;512.30;2380.80;;;;;;5010014;28;20033;-78
2021/08/30 09:22:53;;;;;;;8.88;4.10;;;512.40;2380.80;;;;;;5012390;28;20053;-78
2021/08/30 09:25:20;;;;;;;6.07;3.83;;;512.50;2380.80;;;;;;5012021;28;20029;-76
2021/08/30 09:27:50;;;;;;;4.63;2.92;;;512.60;2380.80;;;;;;5026382;28;20584;-75
2021/08/30 09:30:23;;;;;;;5.43;3.28;;;512.70;2380.80;;;;;;5013729;28;20518;-79
2021/08/30 09:32:49;;;;;;;6.43;3.10;;;512.90;2380.80;;;;;;5012121;28;20462;-75
2021/08/30 09:35:16;;;;;;;5.95;3.65;;;512.80;2380.80;;;;;;5009820;28;20136;-76
2021/08/30 09:37:43;;;;;;;4.28;3.10;;;537.70;2406.40;;;;;;4993162;28;20022;-79
2021/08/30 09:40:12;;;;;;;8.60;3.17;;;537.80;2380.80;;;;;;5059204;28;20112;-78
2021/08/30 09:42:50;;;;;;;4.55;3.22;;;538.00;2406.40;;;;;;5070826;28;20017;-75
2021/08/30 09:45:26;;;;;;;5.18;3.33;;;538.00;2406.40;;;;;;5103030;28;20473;-78
2021/08/30 09:47:57;;;;;;;8.77;3.08;;;538.00;2380.80;;;;;;5092015;28;20031;-77
2021/08/30 09:50:28;;;;;;;4.38;2.83;;;;;;;;;;5105659;28;20045;-77
2021/08/30 09:52:54;;;;;;;4.97;3.03;;;538.30;2380.80;;;;;;5093501;28;20016;-75
2021/08/30 09:55:20;;;;;;;5.07;2.97;;;538.40;2406.40;;;;;;5093278;28;20044;-79
2021/08/30 09:57:50;;;;;;;5.30;2.92;;;538.50;2329.60;;;;;;5110446;28;20104;-75
2021/08/30 10:00:18;;;;;;;3.60;2.50;;;563.40;2329.60;;;;;;5104732;28;20028;-80
2021/08/30 10:02:57;;;;;;;5.03;3.28;;;563.40;2278.40;;;;;;5109194;28;20016;-79
2021/08/30 10:05:25;;;;;;;3.75;2.25;;;563.60;2304.00;;;;;;5113628;28;20024;-77
2021/08/30 10:07:55;;;;;;;5.18;2.70;;;563.70;2176.00;;;;;;5096599;28;20027;-76
2021/08/30 10:10:22;;;;;;;5.32;2.60;;;563.90;2201.60;;;;;;5090331;28;20024;-78
2021/08/30 10:12:49;;;;;;;4.43;2.85;;;564.10;2201.60;;;;;;5092968;28;20520;-75
2021/08/30 10:15:22;;;;;;;4.57;2.75;;;588.90;2176.00;;;;;;5092973;28;20119;-76
2021/08/30 10:17:49;;;;;;;4.63;2.53;;;588.90;2099.20;;;;;;5099988;28;20020;-76
2021/08/30 10:20:18;;;;;;;3.03;2.10;;;589.00;2048.00;;;;;;5074823;28;20036;-78
2021/08/30 10:23:05;;;;;;;3.47;2.35;;;589.20;2048.00;;;;;;5093085;28;20051;-81
2021/08/30 10:25:35;;;;;;;4.20;2.38;;;588.90;2124.80;;;;;;5105525;28;20008;-81
2021/08/30 10:28:05;;;;;;;3.30;2.40;;;589.10;2048.00;;;;;;5075142;28;20031;-77
2021/08/30 10:30:32;;;;;;;7.10;2.67;;;589.40;2073.60;;;;;;5093146;28;20013;-79
2021/08/30 10:33:03;;;;;;;4.95;2.53;;;589.60;1996.80;;;;;;5093237;28;20103;-81
2021/08/30 10:35:35;;;;;;;9.38;3.08;;;589.70;2048.00;;;;;;5092507;28;20028;-79
2021/08/30 10:38:07;;;;;;;4.38;2.67;;;614.50;1971.20;;;;;;5092839;28;20024;-78
2021/08/30 10:40:35;;;;;;;3.17;2.10;;;614.70;1996.80;;;;;;5092708;28;20032;-75
2021/08/30 10:43:05;;;;;;;3.75;2.63;;;614.70;1945.60;;;;;;5079273;28;20032;-79
2021/08/30 10:45:33;;;;;;;3.60;2.47;;;614.80;1920.00;;;;;;5103093;28;20464;-81
2021/08/30 10:48:03;;;;;;;4.50;2.80;;;614.80;1971.20;;;;;;5107926;28;20030;-76
2021/08/30 10:50:30;;;;;;;3.03;2.08;;;615.00;1920.00;;;;;;5108127;28;20114;-75
2021/08/30 10:53:17;;;;;;;5.85;2.70;;;615.10;1894.40;;;;;;5106865;28;20020;-79
2021/08/30 10:55:44;;;;;;;2.90;2.10;;;615.20;1920.00;;;;;;5099291;28;20052;-79
2021/08/30 10:58:16;;;;;;;5.72;2.33;;;615.30;1894.40;;;;;;5093759;28;20127;-80
2021/08/30 11:00:42;;;;;;;3.03;1.85;;;615.30;1920.00;;;;;;5098833;28;20032;-78
2021/08/30 11:03:09;;;;;;;3.05;2.45;;;640.00;1843.20;;;;;;5117093;28;20050;-75
2021/08/30 11:05:35;;;;;;;4.05;2.05;;;640.10;1843.20;;;;;;5117234;28;20476;-76
2021/08/30 11:08:03;;;;;;;3.22;2.17;;;640.30;1868.80;;;;;;5117047;28;20445;-75
2021/08/30 11:10:29;;;;;;;4.63;2.55;;;640.20;1945.60;;;;;;5107761;28;20111;-75
2021/08/30 11:12:58;;;;;;;5.60;2.30;;;640.50;1843.20;;;;;;5110845;28;20122;-77
2021/08/30 11:15:31;;;;;;;2.72;1.90;;;640.40;1868.80;;;;;;5096405;28;20111;-76
2021/08/30 11:18:03;;;;;;;4.10;2.33;;;640.20;1843.20;;;;;;5110887;28;20073;-77
2021/08/30 11:20:29;;;;;;;4.47;1.70;;;615.20;1843.20;;;;;;5077951;28;20031;-77
2021/08/30 11:22:55;;;;;;;2.65;1.95;;;614.90;1894.40;;;;;;5096403;28;20016;-79
2021/08/30 11:25:21;;;;;;;3.00;1.83;;;615.00;1868.80;;;;;;5080831;28;20020;-77
2021/08/30 11:27:47;;;;;;;3.05;1.80;;;615.30;1843.20;;;;;;5085343;28;20035;-76
2021/08/30 11:30:14;;;;;;;3.58;1.60;;;615.30;1868.80;;;;;;5103663;28;20016;-75
2021/08/30 11:32:41;;;;;;;4.35;1.75;;;640.20;1868.80;;;;;;5099159;28;20098;-76
2021/08/30 11:35:09;;;;;;;2.95;1.80;;;640.20;1792.00;;;;;;5107266;28;20106;-78
2021/08/30 11:37:36;;;;;;;2.30;1.60;;;640.40;1766.40;;;;;;5097468;28;20028;-78
2021/08/30 11:40:09;;;;;;;8.63;1.83;;;640.20;1843.20;;;;;;5090957;28;20038;-78
2021/08/30 11:42:36;;;;;;;2.40;1.67;;;640.00;1894.40;;;;;;5103918;28;20095;-75
2021/08/30 11:45:05;;;;;;;3.38;1.63;;;615.00;1843.20;;;;;;5091257;28;20028;-76
2021/08/30 11:47:31;;;;;;;2.55;1.58;;;614.70;1868.80;;;;;;5103401;28;20036;-76
2021/08/30 11:50:03;;;;;;;4.97;2.17;;;614.50;1843.20;;;;;;5103300;28;20032;-78
2021/08/30 11:52:33;;;;;;;2.67;1.88;;;589.70;1920.00;;;;;;5093439;28;20024;-79
2021/08/30 11:55:22;;;;;;;2.67;1.77;;;589.60;1971.20;;;;;;5077057;28;20060;-78
2021/08/30 11:58:00;;;;;;;2.70;1.90;;;614.80;1894.40;;;;;;5012500;28;20045;-76
2021/08/30 12:00:28;;;;;;;4.28;1.77;;;614.90;1792.00;;;;;;5016925;28;20041;-78
2021/08/30 12:02:58;;;;;;;2.10;1.50;;;615.30;1766.40;;;;;;5016339;28;20083;-79
2021/08/30 12:05:29;;;;;;;3.67;1.60;;;640.20;1740.80;;;;;;5013545;28;20140;-78
2021/08/30 12:07:57;;;;;;;8.75;2.05;;;640.00;1817.60;;;;;;5016338;28;20095;-81
2021/08/30 12:10:25;;;;;;;4.82;1.80;;;615.20;1894.40;;;;;;5013608;28;20030;-78
2021/08/30 12:15:25;;;;;;;3.40;1.95;;;614.80;1894.40;;;;;;5013334;28;20447;-78
2021/08/30 12:17:55;;;;;;;2.58;1.83;;;615.10;1843.20;;;;;;5016285;28;20427;-76
2021/08/30 12:20:44;;;;;;;2.80;1.88;;;640.00;1792.00;;;;;;4999228;28;20096;-76
2021/08/30 12:23:18;;;;;;;7.32;1.80;;;640.00;1817.60;;;;;;5012944;28;20072;-79
2021/08/30 12:25:46;;;;;;;4.53;1.58;;;640.30;1792.00;;;;;;5010611;28;20036;-78
2021/08/30 12:28:14;;;;;;;4.95;1.60;;;640.50;1715.20;;;;;;5012632;28;20121;-76